Lowry, Colorado
Current Conditions -  °F | °C
As of 4:58 AM on Friday 31 Oct 2014 (Local Time) from KBKF Reporting Station
Clear Clear  
Wind Chill: 34°   Ceiling: Unl
Heat Index: 40°   Visibility: 10mi
Dew Point: 25°   Wind: 9mph
Humidity: 55%   Direction: 210°SSW
Pressure: 30.34"   Gusts: NA
Location:  39.732°N, 104.924°W
Report Text: KBKF 311058Z 21008KT 10SM CLR 05/M04 A3034 RMK AO2A SLP242 T00451039
Loading
Personal Weather Stations






























Interactive Weather Map
Tropical Storm Tracking
New forecast layout! Learn more

10-Day Weather Forecast

Advertisements
Track Severe Weather on mobile